Terminal Aerodrome Forecast
Issued by NWS

Home | Current Version | Previous Version | Text Only | Print | Product List | Glossary On
Versions: 1 2 3 4 5 6 7 8 9 10 11 12 13 14 15 16 17 18 19 20 21 22 23 24 25 26
000
FTUS41 KBUF 280200 AAA
TAFIAG
TAF AMD
KIAG 280225Z 2802/2824 35008KT P6SM SCT035
     FM280800 30005KT P6SM SCT025
     FM281400 34010KT P6SM BKN035
     FM281800 31010KT P6SM SCT040=

USA.gov is the U.S. government's official web portal to all federal, state and local government web resources and services.